메인 페이지
METAR-TAF:

METAR-TAF

공항 :

인시를릭 공군 기지

Incirlik, 터키

위도: 37-00N, 경도: 035-25E, 고도: 73m

현재 날씨관측

예보는 35분 전, 13:50시(UTC)에 발표되었습니다.
북동10kt
온도 11°C
습도 100%
기압 1012 hPa
시정 10km 이상
고도 3000ft 상공 구름 많음
고도 7000ft 상공 구름 많음
약한소나기

METAR: LTAG 141350Z 04010KT 9999 -SHRA BKN030 BKN070 11/11 Q1012 NOSIG

시각: 17:25 (14:25 UTC)

예보

예보는 3 시간 45분 전, 10:40시(UTC)에 발표되었습니다.
예보 대상 시간: 14일 12시부터 15일 12시까지 (UTC)
북북동9kt
시정 10km 이상
고도 3000ft 상공 구름 많음
고도 9000ft 상공 구름 많음
일시적
14일 12시부터 14일 16시까지 (UTC)
고도 2000ft 상공 구름 조금, 적란운.
고도 3000ft 상공 구름 많음
약한소나기
일시적
14일 20시부터 14일 24시까지 (UTC)
고도 2000ft 상공 구름 조금, 적란운.
고도 3000ft 상공 구름 많음
뇌우, 약한비
일시적
15일 02시부터 15일 06시까지 (UTC)
약한소나기

TAF: LTAG 141040Z 1412/1512 03009KT 9999 BKN030 BKN090 TEMPO 1412/1416 -SHRA FEW020CB BKN030 TEMPO 1420/1424 -TSRA FEW020CB BKN030 TEMPO 1502/1506 -SHRA

4,000개 이상의 공항 관측 자료 및 예보 (METAR 및 TAF 보고).

지도상에서 검색 가능한 기상관측소가 노란 점과 빨간 점으로 표시되어 있습니다.

기상관측소 명을 보려면 표시 위로 마우스를 이동하세요.

날씨 관측과 예보를 보려면 클릭하세요.

지도 변경 : 확대하려면 엑스 표시가 있는 녹색 버튼, 축소하려면 빼기 표시가 있는 녹색 버튼, 다음 페이지의 지도를 보려면 녹색 화살표를 클릭하세요.


METAR-TAF: